Terminal Aerodrome Forecast
Issued by NWS Sioux Falls, SD

Home | Current Version | Previous Version | Text Only | Print | Product List | Glossary On
Versions: 1 2 3 4 5 6 7 8 9 10 11 12 13 14 15 16 17 18 19
000
FTUS43 KFSD 250413 AAB
TAFHON
TAF AMD
KHON 250413Z 2504/2524 10009KT 3SM -SN OVC035
     FM250500 11008KT 1SM -SN OVC025
     FM250800 09012KT 1SM -SN OVC015
     FM251200 07012KT 2SM -SN OVC015
     FM251400 03014G20KT 4SM -SN OVC018
     FM251700 01016G24KT 6SM -SN OVC020=

USA.gov is the U.S. government's official web portal to all federal, state and local government web resources and services.